createdAt,value
2019-02-08T00:02:26.086Z,9.10
2019-02-08T00:04:52.789Z,8.90
2019-02-08T00:07:19.279Z,9.23
2019-02-08T00:09:45.970Z,8.83
2019-02-08T00:12:14.731Z,8.43
2019-02-08T00:14:41.463Z,9.90
2019-02-08T00:17:08.401Z,9.63
2019-02-08T00:19:35.094Z,10.07
2019-02-08T00:22:01.705Z,9.60
2019-02-08T00:24:28.590Z,8.93
2019-02-08T00:26:55.463Z,9.43
2019-02-08T00:29:22.109Z,8.80
2019-02-08T00:31:51.622Z,9.90
2019-02-08T00:34:18.391Z,9.90
2019-02-08T00:36:44.897Z,10.13
2019-02-08T00:39:14.205Z,10.60
2019-02-08T00:41:40.687Z,9.47
2019-02-08T00:44:07.490Z,10.77
2019-02-08T00:46:38.534Z,9.37
2019-02-08T00:49:05.334Z,10.53
2019-02-08T00:51:31.873Z,10.17
2019-02-08T00:53:58.514Z,9.80
2019-02-08T00:56:25.115Z,8.73
2019-02-08T00:58:51.698Z,10.70
2019-02-08T01:01:21.246Z,10.40
2019-02-08T01:03:47.649Z,10.17
2019-02-08T01:06:15.526Z,8.80
2019-02-08T01:08:42.272Z,11.07
2019-02-08T01:11:08.776Z,11.90
2019-02-08T01:13:35.465Z,10.37
2019-02-08T01:16:03.798Z,10.80
2019-02-08T01:18:31.609Z,10.60
2019-02-08T01:20:58.044Z,9.87
2019-02-08T01:23:24.675Z,11.17
2019-02-08T01:25:51.355Z,11.23
2019-02-08T01:28:17.955Z,10.73
2019-02-08T01:30:44.666Z,10.05
2019-02-08T01:33:11.474Z,10.37
2019-02-08T01:35:38.171Z,10.57
2019-02-08T01:38:04.872Z,9.47
2019-02-08T01:40:37.928Z,10.63
2019-02-08T01:43:06.222Z,9.63
2019-02-08T01:45:32.733Z,9.93
2019-02-08T01:48:01.981Z,9.83
2019-02-08T01:50:29.338Z,10.00
2019-02-08T01:52:56.162Z,10.87
2019-02-08T01:55:22.859Z,8.63
2019-02-08T01:57:50.647Z,11.03
2019-02-08T02:00:23.256Z,10.30
2019-02-08T02:02:50.114Z,10.13
2019-02-08T02:05:16.780Z,10.80
2019-02-08T02:07:43.298Z,10.77
2019-02-08T02:10:16.343Z,10.13
2019-02-08T02:12:43.086Z,10.67
2019-02-08T02:15:10.083Z,9.97
2019-02-08T02:17:38.450Z,10.27
2019-02-08T02:20:20.811Z,10.07
2019-02-08T02:22:47.381Z,10.13
2019-02-08T02:25:14.163Z,10.37
2019-02-08T02:27:40.877Z,10.60
2019-02-08T02:30:17.108Z,10.17
2019-02-08T02:32:43.721Z,10.55
2019-02-08T02:35:12.183Z,8.47
2019-02-08T02:37:38.963Z,10.00
2019-02-08T02:40:09.119Z,9.00
2019-02-08T02:42:35.851Z,10.25
2019-02-08T02:45:08.541Z,9.67
2019-02-08T02:47:35.296Z,9.60
2019-02-08T02:50:01.792Z,9.60
2019-02-08T02:52:28.590Z,9.50
2019-02-08T02:54:55.340Z,10.72
2019-02-08T02:57:21.847Z,10.40
2019-02-08T02:59:48.321Z,10.82
2019-02-08T03:02:15.186Z,9.40
2019-02-08T03:04:41.878Z,10.28
2019-02-08T03:07:08.494Z,11.60
2019-02-08T03:09:35.251Z,10.63
2019-02-08T03:12:01.779Z,10.65
2019-02-08T03:14:29.072Z,9.78
2019-02-08T03:16:56.702Z,11.40
2019-02-08T03:19:23.242Z,9.77
2019-02-08T03:21:49.854Z,11.40
2019-02-08T03:24:16.490Z,10.47
2019-02-08T03:26:43.134Z,10.07
2019-02-08T03:29:09.752Z,11.30
2019-02-08T03:31:36.513Z,11.37
2019-02-08T03:34:03.724Z,12.53
2019-02-08T03:36:30.297Z,12.57
2019-02-08T03:38:56.926Z,11.90
2019-02-08T03:41:23.679Z,12.40
2019-02-08T03:43:50.586Z,12.03
2019-02-08T03:46:17.304Z,13.20
2019-02-08T03:48:43.975Z,13.45
2019-02-08T03:51:10.536Z,11.07
2019-02-08T03:53:37.150Z,11.87
2019-02-08T03:56:03.773Z,12.63
2019-02-08T03:58:30.262Z,12.40
2019-02-08T04:01:01.216Z,14.15
2019-02-08T04:03:28.022Z,13.98
2019-02-08T04:05:54.585Z,14.13
2019-02-08T04:08:21.277Z,13.73
2019-02-08T04:10:47.772Z,14.87
2019-02-08T04:13:14.397Z,12.80
2019-02-08T04:15:41.243Z,13.32
2019-02-08T04:18:07.869Z,12.35
2019-02-08T04:20:34.687Z,14.57
2019-02-08T04:23:01.505Z,14.13
2019-02-08T04:25:28.057Z,16.07
2019-02-08T04:27:54.563Z,14.97
2019-02-08T04:30:29.445Z,14.47
2019-02-08T04:32:56.565Z,14.03
2019-02-08T04:35:23.089Z,14.80
2019-02-08T04:37:49.635Z,14.13
2019-02-08T04:40:18.410Z,14.40
2019-02-08T04:42:45.210Z,15.20
2019-02-08T04:45:12.027Z,11.88
2019-02-08T04:47:38.515Z,14.47
2019-02-08T04:50:14.644Z,15.95
2019-02-08T04:52:41.366Z,14.83
2019-02-08T04:55:09.301Z,16.43
2019-02-08T04:57:35.795Z,15.05
2019-02-08T05:00:12.051Z,13.80
2019-02-08T05:02:38.773Z,14.03
2019-02-08T05:05:06.079Z,15.65
2019-02-08T05:07:33.169Z,14.40
2019-02-08T05:09:59.773Z,15.32
2019-02-08T05:12:26.455Z,16.07
2019-02-08T05:14:52.971Z,10.00
2019-02-08T05:17:19.744Z,15.03
2019-02-08T05:19:46.578Z,11.75
2019-02-08T05:22:13.054Z,14.87
2019-02-08T05:24:45.882Z,13.88
2019-02-08T05:27:08.084Z,11.97
2019-02-08T05:29:34.873Z,13.65
2019-02-08T05:32:01.897Z,10.40
2019-02-08T05:34:31.019Z,13.90
2019-02-08T05:36:57.515Z,13.35
2019-02-08T05:39:24.286Z,12.37
2019-02-08T05:41:50.798Z,12.73
2019-02-08T05:44:19.315Z,14.65
2019-02-08T05:46:46.159Z,13.98
2019-02-08T05:49:14.912Z,11.97
2019-02-08T05:51:41.382Z,14.05
2019-02-08T05:54:08.412Z,11.87
2019-02-08T05:56:35.084Z,12.63
2019-02-08T05:59:04.666Z,13.40
2019-02-08T06:01:31.283Z,12.23
2019-02-08T06:03:57.880Z,10.90
2019-02-08T06:06:24.639Z,12.85
2019-02-08T06:08:51.101Z,10.32
2019-02-08T06:11:17.932Z,11.30
2019-02-08T06:13:44.496Z,11.75
2019-02-08T06:16:11.294Z,10.63
2019-02-08T06:18:37.684Z,9.75
2019-02-08T06:21:07.304Z,10.63
2019-02-08T06:23:34.051Z,9.78
2019-02-08T06:26:00.525Z,9.48
2019-02-08T06:28:27.112Z,8.20
2019-02-08T06:30:53.786Z,8.38
2019-02-08T06:33:20.356Z,8.85
2019-02-08T06:35:47.038Z,8.08
2019-02-08T06:38:13.562Z,9.43
2019-02-08T06:40:42.076Z,8.88
2019-02-08T06:43:08.593Z,10.20
2019-02-08T06:45:35.155Z,7.95
2019-02-08T06:48:01.998Z,9.23
2019-02-08T06:50:28.526Z,8.98
2019-02-08T06:52:54.992Z,6.92
2019-02-08T06:55:21.976Z,8.23
2019-02-08T06:57:50.622Z,7.00
2019-02-08T07:00:22.203Z,8.50
2019-02-08T07:02:56.438Z,7.87
2019-02-08T07:05:24.976Z,7.80
2019-02-08T07:07:53.397Z,5.58
2019-02-08T07:10:21.797Z,7.62
2019-02-08T07:13:02.237Z,6.67
2019-02-08T07:15:33.240Z,7.43
2019-02-08T07:18:17.790Z,6.87
2019-02-08T07:21:02.471Z,6.92
2019-02-08T07:23:45.684Z,6.12
2019-02-08T07:26:19.674Z,4.87
2019-02-08T07:29:04.734Z,5.45
2019-02-08T07:31:33.305Z,5.20
2019-02-08T07:34:08.055Z,7.00
2019-02-08T07:36:36.479Z,5.62
2019-02-08T07:39:08.302Z,5.83
2019-02-08T07:41:53.130Z,3.87
2019-02-08T07:44:28.641Z,5.40
2019-02-08T07:46:57.835Z,4.70
2019-02-08T07:49:34.346Z,4.70
2019-02-08T07:52:02.933Z,4.20
2019-02-08T07:54:32.185Z,4.47
2019-02-08T07:57:00.619Z,3.87
2019-02-08T07:59:45.086Z,3.47
2019-02-08T08:02:27.134Z,3.98
2019-02-08T08:04:55.782Z,3.10
2019-02-08T08:07:24.747Z,3.20
2019-02-08T08:09:53.188Z,3.25
2019-02-08T08:12:30.332Z,3.47
2019-02-08T08:15:00.471Z,3.43
2019-02-08T08:17:55.695Z,2.77
2019-02-08T08:20:39.058Z,2.42
2019-02-08T08:23:07.630Z,2.87
2019-02-08T08:25:53.883Z,2.40
2019-02-08T08:28:28.952Z,2.52
2019-02-08T08:31:00.678Z,2.60
2019-02-08T08:33:35.530Z,2.47
2019-02-08T08:36:11.579Z,2.30
2019-02-08T08:38:41.886Z,2.45
2019-02-08T08:41:24.049Z,2.12
2019-02-08T08:44:16.985Z,2.65
2019-02-08T08:47:14.343Z,2.22
2019-02-08T08:49:58.939Z,2.55
2019-02-08T08:52:35.139Z,2.05
2019-02-08T08:55:17.866Z,1.67
2019-02-08T08:58:21.247Z,1.60
2019-02-08T09:01:03.189Z,1.60
2019-02-08T09:03:36.149Z,1.55
2019-02-08T09:06:29.242Z,1.37
2019-02-08T09:09:14.588Z,2.27
2019-02-08T09:11:47.997Z,1.35
2019-02-08T09:14:38.423Z,1.32
2019-02-08T09:17:40.721Z,1.42
2019-02-08T09:20:39.448Z,1.55
2019-02-08T09:23:09.843Z,1.10
2019-02-08T09:25:40.092Z,1.20
2019-02-08T09:28:13.636Z,1.45
2019-02-08T09:30:44.046Z,1.30
2019-02-08T09:33:20.374Z,1.62
2019-02-08T09:36:19.358Z,1.87
2019-02-08T09:39:16.990Z,1.70
2019-02-08T09:41:50.415Z,1.37
2019-02-08T09:44:22.735Z,1.37
2019-02-08T09:47:04.686Z,1.07
2019-02-08T09:49:57.370Z,1.20
2019-02-08T09:52:27.440Z,1.65
2019-02-08T09:55:23.120Z,1.42
2019-02-08T09:58:14.102Z,1.30
2019-02-08T10:01:12.878Z,1.30
2019-02-08T10:03:45.805Z,1.07
2019-02-08T10:06:36.274Z,1.22
2019-02-08T10:09:26.088Z,1.27
2019-02-08T10:12:12.788Z,1.10
2019-02-08T10:14:57.496Z,1.10
2019-02-08T10:17:47.410Z,0.70
2019-02-08T10:20:47.935Z,0.80
2019-02-08T10:23:18.947Z,1.17
2019-02-08T10:26:06.560Z,1.05
2019-02-08T10:28:56.498Z,0.90
2019-02-08T10:32:01.231Z,0.90
2019-02-08T10:34:37.294Z,0.95
2019-02-08T10:37:25.356Z,0.80
2019-02-08T10:40:07.090Z,0.80
2019-02-08T10:42:40.176Z,0.82
2019-02-08T10:45:19.326Z,1.07
2019-02-08T10:48:10.526Z,0.78
2019-02-08T10:50:52.655Z,0.95
2019-02-08T10:53:39.111Z,0.82
2019-02-08T10:56:18.448Z,0.75
2019-02-08T10:59:08.001Z,0.70
2019-02-08T11:01:42.044Z,0.90
2019-02-08T11:04:13.464Z,0.85
2019-02-08T11:07:15.062Z,1.12
2019-02-08T11:09:57.023Z,0.80
2019-02-08T11:12:39.210Z,1.20
2019-02-08T11:15:28.975Z,0.80
2019-02-08T11:18:02.110Z,1.00
2019-02-08T11:20:28.682Z,0.95
2019-02-08T11:22:55.290Z,0.80
2019-02-08T11:25:21.908Z,0.98
2019-02-08T11:27:48.342Z,0.88
2019-02-08T11:30:16.125Z,1.02
2019-02-08T11:32:43.629Z,1.00
2019-02-08T11:35:10.296Z,1.00
2019-02-08T11:37:36.765Z,1.00
2019-02-08T11:40:07.038Z,0.80
2019-02-08T11:42:33.518Z,1.02
2019-02-08T11:44:59.994Z,0.90
2019-02-08T11:47:26.579Z,0.95
2019-02-08T11:49:53.066Z,1.00
2019-02-08T11:52:19.556Z,0.80
2019-02-08T11:54:46.243Z,0.85
2019-02-08T11:57:12.722Z,0.80
2019-02-08T11:59:39.186Z,0.72
2019-02-08T12:02:06.004Z,0.75
2019-02-08T12:04:32.534Z,0.65
2019-02-08T12:06:59.004Z,0.70
2019-02-08T12:09:25.707Z,0.70
2019-02-08T12:11:52.237Z,0.70
2019-02-08T12:14:18.767Z,0.70
2019-02-08T12:16:45.334Z,0.65
2019-02-08T12:19:11.887Z,0.50
2019-02-08T12:21:38.377Z,0.60
2019-02-08T12:24:05.134Z,0.80
2019-02-08T12:26:37.761Z,0.70
2019-02-08T12:28:59.891Z,0.60
2019-02-08T12:31:26.508Z,1.00
2019-02-08T12:33:53.068Z,0.60
2019-02-08T12:36:19.590Z,0.50
2019-02-08T12:38:46.290Z,0.60
2019-02-08T12:41:13.013Z,0.68
2019-02-08T12:43:39.493Z,0.70
2019-02-08T12:46:06.352Z,0.55
2019-02-08T12:48:32.825Z,0.70
2019-02-08T12:50:59.286Z,0.68
2019-02-08T12:53:25.957Z,0.55
2019-02-08T12:55:53.469Z,0.57
2019-02-08T12:58:19.927Z,0.57
2019-02-08T13:00:46.490Z,0.45
2019-02-08T13:03:12.972Z,0.50
2019-02-08T13:05:39.474Z,0.60
2019-02-08T13:08:06.238Z,0.60
2019-02-08T13:10:32.952Z,0.60
2019-02-08T13:12:59.442Z,0.47
2019-02-08T13:15:25.895Z,0.85
2019-02-08T13:17:52.378Z,0.53
2019-02-08T13:20:20.075Z,0.50
2019-02-08T13:22:46.579Z,0.50
2019-02-08T13:25:14.555Z,0.50
2019-02-08T13:27:41.234Z,0.50
2019-02-08T13:30:20.422Z,0.50
2019-02-08T13:32:46.960Z,0.45
2019-02-08T13:35:13.453Z,0.78
2019-02-08T13:37:40.154Z,0.60
2019-02-08T13:40:10.250Z,0.60
2019-02-08T13:42:36.713Z,0.50
2019-02-08T13:45:06.835Z,0.60
2019-02-08T13:47:33.463Z,0.60
2019-02-08T13:49:59.842Z,0.80
2019-02-08T13:52:26.543Z,0.70
2019-02-08T13:54:53.083Z,0.93
2019-02-08T13:57:19.643Z,0.60
2019-02-08T13:59:46.249Z,0.72
2019-02-08T14:02:13.993Z,0.70
2019-02-08T14:04:40.397Z,0.70
2019-02-08T14:07:06.980Z,0.57
2019-02-08T14:09:33.445Z,0.60
2019-02-08T14:11:59.951Z,0.60
2019-02-08T14:14:26.539Z,0.80
2019-02-08T14:16:53.170Z,0.72
2019-02-08T14:19:19.638Z,0.70
2019-02-08T14:21:46.247Z,0.70
2019-02-08T14:24:12.738Z,0.80
2019-02-08T14:26:39.265Z,0.80
2019-02-08T14:29:06.030Z,0.85
2019-02-08T14:31:32.611Z,0.72
2019-02-08T14:33:59.070Z,0.65
2019-02-08T14:36:25.768Z,0.70
2019-02-08T14:38:52.274Z,0.70
2019-02-08T14:41:20.263Z,1.12
2019-02-08T14:43:46.986Z,0.70
2019-02-08T14:46:13.665Z,0.70
2019-02-08T14:48:40.222Z,0.72
2019-02-08T14:51:07.157Z,0.80
2019-02-08T14:53:33.603Z,0.60
2019-02-08T14:56:00.161Z,0.90
2019-02-08T14:58:26.782Z,0.80
2019-02-08T15:00:53.307Z,0.98
2019-02-08T15:03:20.040Z,0.93
2019-02-08T15:05:46.739Z,0.95
2019-02-08T15:08:13.273Z,0.80
2019-02-08T15:10:42.784Z,0.82
2019-02-08T15:13:09.558Z,1.02
2019-02-08T15:15:36.029Z,0.90
2019-02-08T15:18:03.496Z,0.98
2019-02-08T15:20:34.682Z,0.90
2019-02-08T15:23:01.145Z,0.93
2019-02-08T15:25:27.878Z,0.80
2019-02-08T15:27:54.697Z,0.80
2019-02-08T15:30:27.505Z,0.95
2019-02-08T15:32:54.014Z,1.00
2019-02-08T15:35:23.213Z,0.93
2019-02-08T15:37:49.925Z,1.10
2019-02-08T15:40:32.249Z,0.85
2019-02-08T15:42:58.754Z,0.80
2019-02-08T15:45:25.455Z,0.80
2019-02-08T15:47:52.073Z,0.82
2019-02-08T15:50:18.673Z,0.88
2019-02-08T15:52:45.435Z,0.90
2019-02-08T15:55:18.510Z,0.90
2019-02-08T15:57:45.002Z,0.80
2019-02-08T16:00:15.962Z,0.80
2019-02-08T16:02:42.672Z,1.35
2019-02-08T16:05:14.898Z,0.80
2019-02-08T16:07:41.470Z,1.05
2019-02-08T16:10:09.278Z,1.27
2019-02-08T16:12:35.873Z,0.90
2019-02-08T16:15:09.020Z,1.10
2019-02-08T16:17:35.511Z,0.93
2019-02-08T16:20:02.969Z,1.15
2019-02-08T16:22:29.431Z,1.12
2019-02-08T16:24:55.910Z,0.90
2019-02-08T16:27:22.493Z,0.85
2019-02-08T16:29:49.083Z,0.80
2019-02-08T16:32:15.727Z,1.07
2019-02-08T16:34:42.331Z,1.00
2019-02-08T16:37:08.793Z,1.10
2019-02-08T16:39:35.529Z,1.00
2019-02-08T16:42:02.035Z,1.20
2019-02-08T16:44:28.716Z,1.12
2019-02-08T16:46:55.310Z,0.90
2019-02-08T16:49:22.194Z,1.27
2019-02-08T16:51:48.686Z,1.17
2019-02-08T16:54:15.362Z,0.98
2019-02-08T16:56:41.862Z,1.00
2019-02-08T16:59:08.337Z,1.20
2019-02-08T17:01:35.026Z,1.02
2019-02-08T17:04:01.486Z,1.00
2019-02-08T17:06:28.050Z,1.12
2019-02-08T17:08:54.661Z,1.12
2019-02-08T17:11:21.198Z,1.22
2019-02-08T17:13:47.765Z,1.37
2019-02-08T17:16:14.538Z,1.10
2019-02-08T17:18:41.046Z,1.10
2019-02-08T17:21:07.777Z,1.45
2019-02-08T17:23:34.566Z,1.20
2019-02-08T17:26:01.060Z,1.32
2019-02-08T17:28:28.850Z,3.47
2019-02-08T17:30:55.510Z,1.98
2019-02-08T17:33:22.000Z,1.45
2019-02-08T17:35:52.561Z,1.40
2019-02-08T17:38:18.995Z,2.10
2019-02-08T17:40:47.390Z,1.10
2019-02-08T17:43:14.224Z,1.00
2019-02-08T17:45:40.846Z,1.15
2019-02-08T17:48:10.826Z,0.95
2019-02-08T17:50:40.395Z,1.30
2019-02-08T17:53:06.839Z,1.50
2019-02-08T17:55:33.418Z,1.27
2019-02-08T17:58:03.569Z,1.30
2019-02-08T18:00:47.515Z,1.37
2019-02-08T18:03:14.010Z,1.00
2019-02-08T18:05:40.485Z,1.02
2019-02-08T18:08:09.153Z,1.10
2019-02-08T18:10:35.630Z,1.00
2019-02-08T18:13:03.517Z,0.90
2019-02-08T18:15:30.391Z,1.50
2019-02-08T18:17:56.871Z,1.00
2019-02-08T18:20:46.574Z,1.37
2019-02-08T18:23:13.045Z,1.52
2019-02-08T18:25:41.743Z,1.30
2019-02-08T18:28:11.038Z,1.25
2019-02-08T18:30:36.657Z,0.90
2019-02-08T18:33:03.563Z,1.20
2019-02-08T18:35:30.238Z,1.20
2019-02-08T18:37:56.744Z,1.27
2019-02-08T18:40:24.090Z,1.47
2019-02-08T18:42:50.778Z,1.80
2019-02-08T18:45:22.918Z,1.10
2019-02-08T18:47:49.581Z,1.32
2019-02-08T18:50:20.477Z,1.25
2019-02-08T18:52:47.026Z,1.60
2019-02-08T18:55:13.489Z,1.10
2019-02-08T18:57:40.110Z,1.30
2019-02-08T19:00:18.126Z,1.70
2019-02-08T19:02:44.589Z,1.20
2019-02-08T19:05:13.457Z,1.20
2019-02-08T19:07:39.874Z,1.50
2019-02-08T19:10:10.177Z,1.42
2019-02-08T19:12:36.930Z,1.37
2019-02-08T19:15:07.056Z,1.30
2019-02-08T19:17:33.671Z,1.70
2019-02-08T19:20:00.277Z,1.47
2019-02-08T19:22:27.078Z,1.30
2019-02-08T19:24:53.634Z,1.60
2019-02-08T19:27:21.910Z,2.10
2019-02-08T19:29:48.390Z,1.67
2019-02-08T19:32:14.998Z,1.92
2019-02-08T19:34:41.606Z,1.87
2019-02-08T19:37:08.170Z,1.50
2019-02-08T19:39:34.791Z,1.70
2019-02-08T19:42:01.273Z,1.50
2019-02-08T19:44:27.846Z,1.70
2019-02-08T19:46:56.291Z,1.50
2019-02-08T19:49:22.769Z,1.72
2019-02-08T19:51:49.285Z,1.50
2019-02-08T19:54:15.954Z,1.50
2019-02-08T19:56:42.339Z,1.57
2019-02-08T19:59:08.818Z,1.87
2019-02-08T20:01:35.659Z,1.90
2019-02-08T20:04:02.136Z,1.55
2019-02-08T20:06:28.598Z,1.42
2019-02-08T20:08:55.269Z,1.47
2019-02-08T20:11:21.709Z,1.62
2019-02-08T20:13:48.187Z,1.42
2019-02-08T20:16:15.101Z,1.50
2019-02-08T20:18:41.582Z,1.75
2019-02-08T20:21:08.280Z,1.40
2019-02-08T20:23:34.929Z,1.70
2019-02-08T20:26:01.522Z,1.42
2019-02-08T20:28:28.074Z,1.32
2019-02-08T20:30:54.754Z,1.90
2019-02-08T20:33:22.997Z,1.50
2019-02-08T20:35:53.680Z,1.50
2019-02-08T20:38:22.188Z,1.32
2019-02-08T20:40:52.857Z,1.65
2019-02-08T20:43:19.784Z,1.60
2019-02-08T20:45:46.423Z,1.77
2019-02-08T20:48:18.994Z,1.30
2019-02-08T20:50:47.693Z,1.47
2019-02-08T20:53:14.287Z,1.45
2019-02-08T20:55:40.942Z,1.60
2019-02-08T20:58:09.688Z,1.47
2019-02-08T21:00:38.348Z,1.57
2019-02-08T21:03:09.985Z,1.50
2019-02-08T21:05:36.747Z,2.10
2019-02-08T21:08:04.634Z,1.67
2019-02-08T21:10:31.250Z,1.77
2019-02-08T21:13:00.639Z,1.70
2019-02-08T21:15:27.354Z,1.65
2019-02-08T21:17:53.971Z,1.87
2019-02-08T21:20:20.519Z,1.87
2019-02-08T21:22:47.313Z,1.70
2019-02-08T21:25:19.481Z,1.72
2019-02-08T21:27:46.648Z,1.62
2019-02-08T21:30:16.523Z,1.80
2019-02-08T21:32:43.098Z,2.08
2019-02-08T21:35:10.172Z,1.57
2019-02-08T21:37:36.694Z,1.60
2019-02-08T21:40:06.747Z,1.65
2019-02-08T21:42:34.061Z,1.67
2019-02-08T21:45:00.621Z,2.42
2019-02-08T21:47:27.065Z,1.50
2019-02-08T21:49:53.765Z,1.45
2019-02-08T21:52:20.350Z,1.87
2019-02-08T21:54:46.958Z,2.02
2019-02-08T21:57:13.486Z,1.87
2019-02-08T21:59:40.031Z,2.00
2019-02-08T22:02:06.711Z,2.17
2019-02-08T22:04:33.318Z,1.65
2019-02-08T22:06:59.831Z,1.65
2019-02-08T22:09:26.349Z,1.80
2019-02-08T22:11:52.947Z,2.55
2019-02-08T22:14:19.454Z,2.20
2019-02-08T22:16:46.962Z,1.75
2019-02-08T22:19:13.597Z,2.05
2019-02-08T22:21:40.202Z,2.30
2019-02-08T22:24:06.794Z,2.08
2019-02-08T22:26:33.497Z,2.47
2019-02-08T22:28:59.983Z,1.90
2019-02-08T22:31:26.488Z,2.35
2019-02-08T22:33:55.521Z,2.20
2019-02-08T22:36:22.055Z,2.17
2019-02-08T22:38:48.558Z,2.83
2019-02-08T22:41:15.191Z,3.22
2019-02-08T22:43:41.706Z,2.12
2019-02-08T22:46:08.090Z,2.60
2019-02-08T22:48:34.649Z,2.70
2019-02-08T22:51:01.224Z,2.37
2019-02-08T22:53:27.803Z,3.45
2019-02-08T22:55:54.296Z,2.52
2019-02-08T22:58:20.915Z,2.75
2019-02-08T23:00:54.633Z,2.90
2019-02-08T23:03:21.094Z,2.80
2019-02-08T23:05:47.597Z,2.92
2019-02-08T23:08:14.329Z,2.95
2019-02-08T23:10:40.893Z,2.90
2019-02-08T23:13:08.169Z,3.35
2019-02-08T23:15:35.034Z,2.90
2019-02-08T23:18:01.674Z,3.45
2019-02-08T23:20:28.307Z,3.40
2019-02-08T23:22:54.883Z,3.08
2019-02-08T23:25:21.367Z,3.83
2019-02-08T23:27:47.875Z,3.42
2019-02-08T23:30:18.659Z,3.67
2019-02-08T23:32:45.285Z,3.12
2019-02-08T23:35:13.204Z,3.72
2019-02-08T23:37:40.602Z,4.20
2019-02-08T23:40:07.973Z,4.28
2019-02-08T23:42:34.467Z,4.28
2019-02-08T23:45:00.999Z,4.42
2019-02-08T23:47:27.617Z,4.50
2019-02-08T23:49:54.136Z,4.20
2019-02-08T23:52:20.769Z,4.00
2019-02-08T23:54:47.375Z,5.15
2019-02-08T23:57:13.913Z,5.60
2019-02-08T23:59:40.371Z,5.08
